Terminal Aerodrome Forecast
Issued by NWS Sterling, VA

Current Version | Previous Version | Graphics & Text | Print | Product List | Glossary On
Versions: 1 2 3 4 5 6 7 8 9 10 11 12 13 14 15 16 17 18 19 20 21 22 23 24 25
000
FTUS41 KLWX 290540 AAB
TAFIAD
TAF AMD
KIAD 290540Z 2906/3012 01005KT 3SM SHRA BR OVC008
     FM290800 35004KT 5SM -SHRA BR OVC008
     FM291100 35004KT 5SM BR OVC010
     FM291300 34006KT P6SM BKN040
     FM300300 00000KT P6SM BKN040=

USA.gov is the U.S. government's official web portal to all federal, state and local government web resources and services.